Terminal Aerodrome Forecast
Issued by NWS Blacksburg, VA

Current Version | Previous Version | Text Only | Print | Product List | Glossary Off
Versions: 1 2 3 4 5 6 7 8 9 10 11 12 13 14 15 16 17 18 19 20 21 22 23 24 25 26 27 28 29 30 31 32 33 34 35 36 37 38 39 40 41 42 43 44 45 46 47 48 49

000
FTUS41 KRNK 202320
TAFBLF
TAF
KBLF 202320Z 2100/2124 21005KT P6SM VCSH SCT025 OVC035
     FM210200 21006KT P6SM -SHRA BKN025
      TEMPO 2102/2106 4SM -TSRA OVC015CB
     FM210600 25009KT P6SM VCSH OVC015
      TEMPO 2106/2109 4SM -SHRA BR OVC007
     FM211100 27007KT P6SM BKN007
     FM211800 30006KT P6SM BKN015=

USA.gov is the U.S. government's official web portal to all federal, state and local government web resources and services.